China Village, Maine
Current Conditions -  °F | °C
As of 9:35 PM on Saturday 20 Dec 2014 (Local Time) from KWVL Reporting Station
Overcast Overcast  
Wind Chill: 13°   Ceiling: 1100
Heat Index: 21°   Visibility: 10mi
Dew Point: 14°   Wind: 7mph
Humidity: 74%   Direction: 340°NNW
Pressure: 30.34"   Gusts: NA
Location:  44.4788°N, 69.5176°W
Report Text: KWVL 210235Z 34006KT 10SM OVC011 M06/M10 A3034 RMK AO1
Loading
Personal Weather Stations






























Interactive Weather Map New forecast layout! Learn more

10-Day Weather Forecast

Advertisements
Track Severe Weather on mobile